createdAt,value
2023-04-26T00:00:45.101Z,58.41
2023-04-26T00:03:12.357Z,60.29
2023-04-26T00:05:39.219Z,59.68
2023-04-26T00:08:05.883Z,57.93
2023-04-26T00:10:32.550Z,59.93
2023-04-26T00:12:59.195Z,59.64
2023-04-26T00:15:25.866Z,60.34
2023-04-26T00:17:55.524Z,62.20
2023-04-26T00:20:22.174Z,60.46
2023-04-26T00:22:48.827Z,59.82
2023-04-26T00:25:15.450Z,59.42
2023-04-26T00:27:42.099Z,59.54
2023-04-26T00:30:09.186Z,59.03
2023-04-26T00:32:35.928Z,59.17
2023-04-26T00:35:06.768Z,58.78
2023-04-26T00:37:33.380Z,60.60
2023-04-26T00:39:59.991Z,62.07
2023-04-26T00:42:27.455Z,62.90
2023-04-26T00:44:54.053Z,62.61
2023-04-26T00:47:20.975Z,62.49
2023-04-26T00:49:47.621Z,61.64
2023-04-26T00:52:14.251Z,61.45
2023-04-26T00:54:41.604Z,62.25
2023-04-26T00:57:08.800Z,62.70
2023-04-26T00:59:37.863Z,64.21
2023-04-26T01:02:04.552Z,64.81
2023-04-26T01:04:31.654Z,63.98
2023-04-26T01:06:58.356Z,63.90
2023-04-26T01:09:25.025Z,65.01
2023-04-26T01:11:52.670Z,64.97
2023-04-26T01:14:20.217Z,64.50
2023-04-26T01:16:47.653Z,63.32
2023-04-26T01:19:14.329Z,63.19
2023-04-26T01:21:41.319Z,62.97
2023-04-26T01:24:11.151Z,62.02
2023-04-26T01:26:38.740Z,60.94
2023-04-26T01:29:17.443Z,59.29
2023-04-26T01:31:44.824Z,58.72
2023-04-26T01:34:11.513Z,59.02
2023-04-26T01:36:38.510Z,60.89
2023-04-26T01:39:05.264Z,61.13
2023-04-26T01:41:31.950Z,59.29
2023-04-26T01:43:58.563Z,59.59
2023-04-26T01:46:25.230Z,59.92
2023-04-26T01:48:52.207Z,59.36
2023-04-26T01:51:19.073Z,59.19
2023-04-26T01:53:45.704Z,60.83
2023-04-26T01:56:12.320Z,60.75
2023-04-26T01:58:38.938Z,59.31
2023-04-26T02:01:07.976Z,59.65
2023-04-26T02:03:35.960Z,59.55
2023-04-26T02:06:03.336Z,58.92
2023-04-26T02:08:30.162Z,62.85
2023-04-26T02:10:57.208Z,63.34
2023-04-26T02:13:23.869Z,63.45
2023-04-26T02:15:50.742Z,61.35
2023-04-26T02:18:17.828Z,62.60
2023-04-26T02:20:44.948Z,61.25
2023-04-26T02:23:12.408Z,60.61
2023-04-26T02:25:39.391Z,61.28
2023-04-26T02:28:06.563Z,60.77
2023-04-26T02:30:33.370Z,60.61
2023-04-26T02:33:01.215Z,60.26
2023-04-26T02:35:27.859Z,60.85
2023-04-26T02:37:54.484Z,60.74
2023-04-26T02:40:21.793Z,61.37
2023-04-26T02:42:48.714Z,61.16
2023-04-26T02:45:15.382Z,62.11
2023-04-26T02:47:42.046Z,61.39
2023-04-26T02:50:09.709Z,60.21
2023-04-26T02:52:37.128Z,60.68
2023-04-26T02:55:04.958Z,61.12
2023-04-26T02:57:32.612Z,61.86
2023-04-26T02:59:59.455Z,62.44
2023-04-26T03:02:26.493Z,61.68
2023-04-26T03:04:53.415Z,61.58
2023-04-26T03:07:20.043Z,63.39
2023-04-26T03:09:46.684Z,64.16
2023-04-26T03:12:13.404Z,64.76
2023-04-26T03:14:40.018Z,64.77
2023-04-26T03:17:06.620Z,64.24
2023-04-26T03:19:33.229Z,65.07
2023-04-26T03:21:59.887Z,68.87
2023-04-26T03:24:29.345Z,69.36
2023-04-26T03:26:55.969Z,68.60
2023-04-26T03:29:22.646Z,65.91
2023-04-26T03:31:49.290Z,66.07
2023-04-26T03:34:15.933Z,66.86
2023-04-26T03:36:42.590Z,68.14
2023-04-26T03:39:09.246Z,68.06
2023-04-26T03:41:36.921Z,67.94
2023-04-26T03:44:03.629Z,67.38
2023-04-26T03:46:30.439Z,66.31
2023-04-26T03:48:57.114Z,64.52
2023-04-26T03:51:23.724Z,66.11
2023-04-26T03:53:50.292Z,64.54
2023-04-26T03:56:16.921Z,64.50
2023-04-26T03:58:43.526Z,64.34
2023-04-26T04:01:10.185Z,65.55
2023-04-26T04:03:39.211Z,63.61
2023-04-26T04:06:07.526Z,62.95
2023-04-26T04:08:34.317Z,62.65
2023-04-26T04:11:01.294Z,63.11
2023-04-26T04:13:28.000Z,66.06
2023-04-26T04:15:54.712Z,64.68
2023-04-26T04:18:21.417Z,64.32
2023-04-26T04:20:50.414Z,63.64
2023-04-26T04:23:17.198Z,64.64
2023-04-26T04:25:44.997Z,66.94
2023-04-26T04:28:11.576Z,65.33
2023-04-26T04:30:38.227Z,64.01
2023-04-26T04:33:04.868Z,63.19
2023-04-26T04:35:31.730Z,63.04
2023-04-26T04:37:58.356Z,62.55
2023-04-26T04:40:25.471Z,64.43
2023-04-26T04:42:52.752Z,68.69
2023-04-26T04:45:20.270Z,68.89
2023-04-26T04:47:46.944Z,68.39
2023-04-26T04:50:13.624Z,67.98
2023-04-26T04:52:40.751Z,68.06
2023-04-26T04:55:07.545Z,67.88
2023-04-26T04:57:34.170Z,68.12
2023-04-26T05:00:00.781Z,67.41
2023-04-26T05:02:27.582Z,66.98
2023-04-26T05:04:54.298Z,66.50
2023-04-26T05:07:24.452Z,66.02
2023-04-26T05:09:51.332Z,64.82
2023-04-26T05:12:17.935Z,64.71
2023-04-26T05:14:44.549Z,64.70
2023-04-26T05:17:11.168Z,64.10
2023-04-26T05:19:37.875Z,64.76
2023-04-26T05:22:04.618Z,64.54
2023-04-26T05:24:31.248Z,63.86
2023-04-26T05:26:59.166Z,63.67
2023-04-26T05:29:31.923Z,63.57
2023-04-26T05:31:58.623Z,64.92
2023-04-26T05:34:25.269Z,64.68
2023-04-26T05:36:51.941Z,63.82
2023-04-26T05:39:18.563Z,63.32
2023-04-26T05:41:45.142Z,61.88
2023-04-26T05:44:12.815Z,60.51
2023-04-26T05:46:39.478Z,60.02
2023-04-26T05:49:06.262Z,59.49
2023-04-26T05:51:33.024Z,58.74
2023-04-26T05:53:59.664Z,58.21
2023-04-26T05:56:26.369Z,58.43
2023-04-26T05:58:53.264Z,58.95
2023-04-26T06:01:20.053Z,59.67
2023-04-26T06:03:47.131Z,60.52
2023-04-26T06:06:13.955Z,59.70
2023-04-26T06:08:42.997Z,58.99
2023-04-26T06:11:09.678Z,58.86
2023-04-26T06:13:36.304Z,60.60
2023-04-26T06:16:02.925Z,61.54
2023-04-26T06:18:29.541Z,61.74
2023-04-26T06:20:56.148Z,60.18
2023-04-26T06:23:22.790Z,59.13
2023-04-26T06:25:49.396Z,58.83
2023-04-26T06:28:16.110Z,59.75
2023-04-26T06:30:42.976Z,61.57
2023-04-26T06:33:09.627Z,61.35
2023-04-26T06:35:42.534Z,61.47
2023-04-26T06:38:09.457Z,59.98
2023-04-26T06:40:36.151Z,59.44
2023-04-26T06:43:04.798Z,58.61
2023-04-26T06:45:31.420Z,59.64
2023-04-26T06:47:58.255Z,61.91
2023-04-26T06:50:24.895Z,59.14
2023-04-26T06:52:51.540Z,56.54
2023-04-26T06:55:18.233Z,56.01
2023-04-26T06:57:44.821Z,56.94
2023-04-26T07:00:11.974Z,57.31
2023-04-26T07:02:38.745Z,57.93
2023-04-26T07:05:06.125Z,57.88
2023-04-26T07:07:32.957Z,55.61
2023-04-26T07:09:59.559Z,52.86
2023-04-26T07:12:26.294Z,52.05
2023-04-26T07:14:52.894Z,51.17
2023-04-26T07:17:19.579Z,49.44
2023-04-26T07:19:46.224Z,47.70
2023-04-26T07:22:12.916Z,46.25
2023-04-26T07:24:39.523Z,46.24
2023-04-26T07:27:06.138Z,45.44
2023-04-26T07:29:32.760Z,46.47
2023-04-26T07:31:59.401Z,46.26
2023-04-26T07:34:26.077Z,43.56
2023-04-26T07:36:52.873Z,42.53
2023-04-26T07:39:19.578Z,43.80
2023-04-26T07:41:46.220Z,41.57
2023-04-26T07:44:13.572Z,42.22
2023-04-26T07:46:40.398Z,42.49
2023-04-26T07:49:07.072Z,42.61
2023-04-26T07:51:35.868Z,40.26
2023-04-26T07:54:02.486Z,43.12
2023-04-26T07:56:29.125Z,41.70
2023-04-26T07:58:55.771Z,40.15
2023-04-26T08:01:22.383Z,39.69
2023-04-26T08:03:49.419Z,39.48
2023-04-26T08:06:16.477Z,41.36
2023-04-26T08:08:43.204Z,42.55
2023-04-26T08:11:10.064Z,41.49
2023-04-26T08:13:36.805Z,42.52
2023-04-26T08:16:03.560Z,38.52
2023-04-26T08:18:30.167Z,42.04
2023-04-26T08:20:56.776Z,41.11
2023-04-26T08:23:26.149Z,41.04
2023-04-26T08:25:52.818Z,40.47
2023-04-26T08:28:19.640Z,41.24
2023-04-26T08:30:46.277Z,41.18
2023-04-26T08:33:13.006Z,39.57
2023-04-26T08:35:39.765Z,42.12
2023-04-26T08:38:07.112Z,40.02
2023-04-26T08:40:33.918Z,41.28
2023-04-26T08:43:00.546Z,41.25
2023-04-26T08:45:27.241Z,42.33
2023-04-26T08:48:04.317Z,43.62
2023-04-26T08:50:32.754Z,41.34
2023-04-26T08:52:59.338Z,42.10
2023-04-26T08:55:27.299Z,40.51
2023-04-26T08:57:55.484Z,41.28
2023-04-26T09:00:22.469Z,42.84
2023-04-26T09:02:51.478Z,40.21
2023-04-26T09:05:19.285Z,41.45
2023-04-26T09:07:50.658Z,43.45
2023-04-26T09:10:21.818Z,43.36
2023-04-26T09:12:55.551Z,44.15
2023-04-26T09:15:24.974Z,44.72
2023-04-26T09:17:52.406Z,44.65
2023-04-26T09:20:22.253Z,43.33
2023-04-26T09:22:50.944Z,43.66
2023-04-26T09:25:28.419Z,44.47
2023-04-26T09:27:55.872Z,46.65
2023-04-26T09:30:23.101Z,51.08
2023-04-26T09:33:01.365Z,48.18
2023-04-26T09:35:44.430Z,49.68
2023-04-26T09:38:14.465Z,50.22
2023-04-26T09:40:45.105Z,48.88
2023-04-26T09:43:13.013Z,49.42
2023-04-26T09:45:46.639Z,48.97
2023-04-26T09:48:20.624Z,48.66
2023-04-26T09:50:48.012Z,49.12
2023-04-26T09:53:35.117Z,49.62
2023-04-26T09:56:19.024Z,50.48
2023-04-26T09:58:59.526Z,48.51
2023-04-26T10:01:28.149Z,49.40
2023-04-26T10:03:56.789Z,50.84
2023-04-26T10:06:24.309Z,50.32
2023-04-26T10:08:51.408Z,50.80
2023-04-26T10:11:18.708Z,48.45
2023-04-26T10:13:45.391Z,48.95
2023-04-26T10:16:12.065Z,48.68
2023-04-26T10:18:38.831Z,48.48
2023-04-26T10:21:21.711Z,46.65
2023-04-26T10:23:49.810Z,46.12
2023-04-26T10:26:51.167Z,46.58
2023-04-26T10:29:18.092Z,48.03
2023-04-26T10:32:02.903Z,45.68
2023-04-26T10:34:31.534Z,46.93
2023-04-26T10:37:15.598Z,44.73
2023-04-26T10:39:46.632Z,43.44
2023-04-26T10:42:26.086Z,45.66
2023-04-26T10:45:28.892Z,43.36
2023-04-26T10:48:16.907Z,43.58
2023-04-26T10:51:01.925Z,43.12
2023-04-26T10:53:31.341Z,43.24
2023-04-26T10:55:58.976Z,43.30
2023-04-26T10:58:34.629Z,42.74
2023-04-26T11:01:08.676Z,41.95
2023-04-26T11:03:36.039Z,42.32
2023-04-26T11:06:10.761Z,44.41
2023-04-26T11:08:38.476Z,42.39
2023-04-26T11:11:08.345Z,44.63
2023-04-26T11:13:43.089Z,41.58
2023-04-26T11:16:12.917Z,42.82
2023-04-26T11:18:42.948Z,41.89
2023-04-26T11:21:10.572Z,41.69
2023-04-26T11:23:37.267Z,41.62
2023-04-26T11:26:06.333Z,40.63
2023-04-26T11:28:37.591Z,39.41
2023-04-26T11:31:06.158Z,38.50
2023-04-26T11:33:33.448Z,36.33
2023-04-26T11:36:00.464Z,37.46
2023-04-26T11:38:29.533Z,36.23
2023-04-26T11:41:01.576Z,36.93
2023-04-26T11:43:36.381Z,40.51
2023-04-26T11:46:04.979Z,38.07
2023-04-26T11:48:33.707Z,39.43
2023-04-26T11:51:03.943Z,36.08
2023-04-26T11:53:41.776Z,38.13
2023-04-26T11:56:20.239Z,38.09
2023-04-26T11:58:51.904Z,36.79
2023-04-26T12:01:27.211Z,38.72
2023-04-26T12:03:59.722Z,39.25
2023-04-26T12:06:43.629Z,37.14
2023-04-26T12:09:10.332Z,38.43
2023-04-26T12:11:37.909Z,36.05
2023-04-26T12:14:05.134Z,35.95
2023-04-26T12:16:32.034Z,34.69
2023-04-26T12:18:58.767Z,35.45
2023-04-26T12:21:26.090Z,35.08
2023-04-26T12:23:53.621Z,34.74
2023-04-26T12:26:20.225Z,34.80
2023-04-26T12:28:46.859Z,35.11
2023-04-26T12:31:13.519Z,33.97
2023-04-26T12:33:40.240Z,34.49
2023-04-26T12:36:11.849Z,36.68
2023-04-26T12:38:39.603Z,33.29
2023-04-26T12:41:06.551Z,35.56
2023-04-26T12:43:35.891Z,34.81
2023-04-26T12:46:02.675Z,34.63
2023-04-26T12:48:29.400Z,33.66
2023-04-26T12:50:56.185Z,34.79
2023-04-26T12:53:22.878Z,35.82
2023-04-26T12:55:49.588Z,35.50
2023-04-26T12:58:16.264Z,35.19
2023-04-26T13:00:44.650Z,32.44
2023-04-26T13:03:11.644Z,34.84
2023-04-26T13:05:38.582Z,32.19
2023-04-26T13:08:05.447Z,33.19
2023-04-26T13:10:32.116Z,31.33
2023-04-26T13:12:59.059Z,31.18
2023-04-26T13:15:26.353Z,33.08
2023-04-26T13:17:53.105Z,34.95
2023-04-26T13:20:19.781Z,34.85
2023-04-26T13:22:46.470Z,34.94
2023-04-26T13:25:13.115Z,33.44
2023-04-26T13:27:39.748Z,32.63
2023-04-26T13:30:07.110Z,31.69
2023-04-26T13:32:33.772Z,32.15
2023-04-26T13:35:00.531Z,32.89
2023-04-26T13:37:27.296Z,32.26
2023-04-26T13:39:53.928Z,34.30
2023-04-26T13:42:20.649Z,35.01
2023-04-26T13:44:47.321Z,34.39
2023-04-26T13:47:14.015Z,35.48
2023-04-26T13:49:40.816Z,34.49
2023-04-26T13:52:07.633Z,37.13
2023-04-26T13:54:34.313Z,36.10
2023-04-26T13:57:00.948Z,36.48
2023-04-26T13:59:27.614Z,34.86
2023-04-26T14:01:56.284Z,35.16
2023-04-26T14:04:25.402Z,32.86
2023-04-26T14:06:52.620Z,32.70
2023-04-26T14:09:19.306Z,32.12
2023-04-26T14:11:51.535Z,34.13
2023-04-26T14:14:21.057Z,31.51
2023-04-26T14:16:47.896Z,30.28
2023-04-26T14:19:14.625Z,30.48
2023-04-26T14:21:41.948Z,32.13
2023-04-26T14:24:09.162Z,33.13
2023-04-26T14:26:35.876Z,33.11
2023-04-26T14:29:02.611Z,34.11
2023-04-26T14:31:29.477Z,34.52
2023-04-26T14:33:56.153Z,30.91
2023-04-26T14:36:22.867Z,31.23
2023-04-26T14:38:49.513Z,32.27
2023-04-26T14:41:17.167Z,33.81
2023-04-26T14:43:44.161Z,33.17
2023-04-26T14:46:10.816Z,35.77
2023-04-26T14:48:37.550Z,33.75
2023-04-26T14:51:04.565Z,33.51
2023-04-26T14:53:31.359Z,33.70
2023-04-26T14:56:02.004Z,33.47
2023-04-26T14:58:28.763Z,34.89
2023-04-26T15:00:55.450Z,33.82
2023-04-26T15:03:22.548Z,33.05
2023-04-26T15:05:49.823Z,32.63
2023-04-26T15:08:17.061Z,31.94
2023-04-26T15:10:44.035Z,33.29
2023-04-26T15:13:10.707Z,34.88
2023-04-26T15:15:37.347Z,32.63
2023-04-26T15:18:04.236Z,31.73
2023-04-26T15:20:30.933Z,31.05
2023-04-26T15:22:57.596Z,32.18
2023-04-26T15:25:24.206Z,32.73
2023-04-26T15:27:51.057Z,30.22
2023-04-26T15:30:17.665Z,28.97
2023-04-26T15:32:48.021Z,30.22
2023-04-26T15:35:14.665Z,34.35
2023-04-26T15:37:43.984Z,33.82
2023-04-26T15:40:11.190Z,35.62
2023-04-26T15:42:37.944Z,35.29
2023-04-26T15:45:07.612Z,35.44
2023-04-26T15:47:34.856Z,36.53
2023-04-26T15:50:02.926Z,34.96
2023-04-26T15:52:29.836Z,36.17
2023-04-26T15:54:56.451Z,36.41
2023-04-26T15:57:23.070Z,35.47
2023-04-26T15:59:50.230Z,36.52
2023-04-26T16:02:16.945Z,35.54
2023-04-26T16:04:43.782Z,35.86
2023-04-26T16:07:10.480Z,35.33
2023-04-26T16:09:37.168Z,35.25
2023-04-26T16:12:04.134Z,35.26
2023-04-26T16:14:32.097Z,34.17
2023-04-26T16:17:01.735Z,33.93
2023-04-26T16:19:28.353Z,34.60
2023-04-26T16:21:55.088Z,34.28
2023-04-26T16:24:21.756Z,33.91
2023-04-26T16:26:48.400Z,34.08
2023-04-26T16:29:15.008Z,32.81
2023-04-26T16:31:41.829Z,32.72
2023-04-26T16:34:11.433Z,32.79
2023-04-26T16:36:38.199Z,31.43
2023-04-26T16:39:04.870Z,31.91
2023-04-26T16:41:31.549Z,32.13
2023-04-26T16:43:58.137Z,32.89
2023-04-26T16:46:24.776Z,32.65
2023-04-26T16:48:51.660Z,32.52
2023-04-26T16:51:18.339Z,33.04
2023-04-26T16:53:45.169Z,32.33
2023-04-26T16:56:11.793Z,32.71
2023-04-26T16:58:38.408Z,32.73
2023-04-26T17:01:05.124Z,33.80
2023-04-26T17:03:32.023Z,32.97
2023-04-26T17:05:58.860Z,32.59
2023-04-26T17:08:25.487Z,33.42
2023-04-26T17:10:52.118Z,32.98
2023-04-26T17:13:19.909Z,32.71
2023-04-26T17:15:47.092Z,33.28
2023-04-26T17:18:13.895Z,32.18
2023-04-26T17:20:40.705Z,33.55
2023-04-26T17:23:07.394Z,33.74
2023-04-26T17:25:34.166Z,32.29
2023-04-26T17:28:00.837Z,32.33
2023-04-26T17:30:27.548Z,32.52
2023-04-26T17:32:54.409Z,32.06
2023-04-26T17:35:21.125Z,32.18
2023-04-26T17:37:47.880Z,33.02
2023-04-26T17:40:14.482Z,32.47
2023-04-26T17:42:41.088Z,32.57
2023-04-26T17:45:07.938Z,32.98
2023-04-26T17:47:34.678Z,33.06
2023-04-26T17:50:01.357Z,32.64
2023-04-26T17:52:28.017Z,32.96
2023-04-26T17:54:55.298Z,32.72
2023-04-26T17:57:22.296Z,35.49
2023-04-26T17:59:50.327Z,34.38
2023-04-26T18:02:17.054Z,33.86
2023-04-26T18:04:44.034Z,34.13
2023-04-26T18:07:11.010Z,34.80
2023-04-26T18:09:37.684Z,33.68
2023-04-26T18:12:04.483Z,34.02
2023-04-26T18:14:31.309Z,34.27
2023-04-26T18:16:57.960Z,35.39
2023-04-26T18:19:27.582Z,35.49
2023-04-26T18:21:54.264Z,36.16
2023-04-26T18:24:21.098Z,36.19
2023-04-26T18:26:47.954Z,35.28
2023-04-26T18:29:18.328Z,36.52
2023-04-26T18:31:45.158Z,37.72
2023-04-26T18:34:11.856Z,37.22
2023-04-26T18:36:38.507Z,36.03
2023-04-26T18:39:05.468Z,38.37
2023-04-26T18:41:32.185Z,38.40
2023-04-26T18:43:58.807Z,38.00
2023-04-26T18:46:25.657Z,37.58
2023-04-26T18:48:53.771Z,39.97
2023-04-26T18:51:20.486Z,38.86
2023-04-26T18:53:47.291Z,40.92
2023-04-26T18:56:16.636Z,40.95
2023-04-26T18:58:43.442Z,40.98
2023-04-26T19:01:10.266Z,40.38
2023-04-26T19:03:38.568Z,40.38
2023-04-26T19:06:09.194Z,41.07
2023-04-26T19:08:36.429Z,39.90
2023-04-26T19:11:03.264Z,39.24
2023-04-26T19:13:30.156Z,38.04
2023-04-26T19:15:56.831Z,40.21
2023-04-26T19:18:23.657Z,39.69
2023-04-26T19:20:53.033Z,40.04
2023-04-26T19:23:19.975Z,40.36
2023-04-26T19:25:46.855Z,39.84
2023-04-26T19:28:13.882Z,40.31
2023-04-26T19:30:40.473Z,41.51
2023-04-26T19:33:07.460Z,45.27
2023-04-26T19:35:34.091Z,46.07
2023-04-26T19:38:00.704Z,45.98
2023-04-26T19:40:27.502Z,44.48
2023-04-26T19:42:54.157Z,45.14
2023-04-26T19:45:20.815Z,45.35
2023-04-26T19:47:47.603Z,46.50
2023-04-26T19:50:14.349Z,47.31
2023-04-26T19:52:41.210Z,46.34
2023-04-26T19:55:08.191Z,46.05
2023-04-26T19:57:34.817Z,45.05
2023-04-26T20:00:01.440Z,45.33
2023-04-26T20:02:28.115Z,46.16
2023-04-26T20:04:54.843Z,47.31
2023-04-26T20:07:21.459Z,46.14
2023-04-26T20:09:48.148Z,45.80
2023-04-26T20:12:14.795Z,45.74
2023-04-26T20:14:41.469Z,46.00
2023-04-26T20:17:08.128Z,45.85
2023-04-26T20:19:34.710Z,46.44
2023-04-26T20:22:01.389Z,47.05
2023-04-26T20:24:28.017Z,47.46
2023-04-26T20:26:55.676Z,45.67
2023-04-26T20:29:22.433Z,44.93
2023-04-26T20:31:49.249Z,43.03
2023-04-26T20:34:15.968Z,42.98
2023-04-26T20:36:42.600Z,41.80
2023-04-26T20:39:09.382Z,40.96
2023-04-26T20:41:36.995Z,41.04
2023-04-26T20:44:03.810Z,41.66
2023-04-26T20:46:31.030Z,40.86
2023-04-26T20:48:57.917Z,41.34
2023-04-26T20:51:24.521Z,40.77
2023-04-26T20:53:51.113Z,40.41
2023-04-26T20:56:17.751Z,40.96
2023-04-26T20:58:44.371Z,41.01
2023-04-26T21:01:11.048Z,41.42
2023-04-26T21:03:37.817Z,40.77
2023-04-26T21:06:04.674Z,40.37
2023-04-26T21:08:31.315Z,40.50
2023-04-26T21:10:57.924Z,41.62
2023-04-26T21:13:24.536Z,40.75
2023-04-26T21:15:51.173Z,40.46
2023-04-26T21:18:17.924Z,41.97
2023-04-26T21:20:44.514Z,40.34
2023-04-26T21:23:11.122Z,39.36
2023-04-26T21:25:37.744Z,39.55
2023-04-26T21:28:04.366Z,40.68
2023-04-26T21:30:30.976Z,40.74
2023-04-26T21:32:57.606Z,40.88
2023-04-26T21:35:24.312Z,40.64
2023-04-26T21:37:50.907Z,41.88
2023-04-26T21:40:17.539Z,40.80
2023-04-26T21:42:48.897Z,43.38
2023-04-26T21:45:21.061Z,42.15
2023-04-26T21:47:47.755Z,42.58
2023-04-26T21:50:14.363Z,44.11
2023-04-26T21:52:41.000Z,43.48
2023-04-26T21:55:08.035Z,43.59
2023-04-26T21:57:34.644Z,43.79
2023-04-26T22:00:01.287Z,45.19
2023-04-26T22:02:28.032Z,45.41
2023-04-26T22:04:54.828Z,45.61
2023-04-26T22:07:21.423Z,45.42
2023-04-26T22:09:48.031Z,45.19
2023-04-26T22:12:14.653Z,45.11
2023-04-26T22:14:41.285Z,46.02
2023-04-26T22:17:07.972Z,47.12
2023-04-26T22:19:34.672Z,48.11
2023-04-26T22:22:01.311Z,48.61
2023-04-26T22:24:27.914Z,48.57
2023-04-26T22:26:54.524Z,47.70
2023-04-26T22:29:21.200Z,47.55
2023-04-26T22:31:47.846Z,47.63
2023-04-26T22:34:14.487Z,47.16
2023-04-26T22:36:41.090Z,47.15
2023-04-26T22:39:07.691Z,46.85
2023-04-26T22:41:34.308Z,46.78
2023-04-26T22:44:01.001Z,47.08
2023-04-26T22:46:27.643Z,46.97
2023-04-26T22:48:54.274Z,46.23
2023-04-26T22:51:20.898Z,46.13
2023-04-26T22:53:47.509Z,46.44
2023-04-26T22:56:14.159Z,46.54
2023-04-26T22:58:40.734Z,47.31
2023-04-26T23:01:07.410Z,45.61
2023-04-26T23:03:36.949Z,46.52
2023-04-26T23:06:06.565Z,46.41
2023-04-26T23:08:33.187Z,47.27
2023-04-26T23:10:59.767Z,47.60
2023-04-26T23:13:27.372Z,47.13
2023-04-26T23:15:53.981Z,47.36
2023-04-26T23:18:20.589Z,47.22
2023-04-26T23:20:47.191Z,47.44
2023-04-26T23:23:13.778Z,47.44
2023-04-26T23:25:41.965Z,46.78
2023-04-26T23:28:08.668Z,46.37
2023-04-26T23:30:35.301Z,46.10
2023-04-26T23:33:02.194Z,45.33
2023-04-26T23:35:29.576Z,46.05
2023-04-26T23:37:56.258Z,47.72
2023-04-26T23:40:22.884Z,48.40
2023-04-26T23:42:49.480Z,48.25
2023-04-26T23:45:16.070Z,47.81
2023-04-26T23:47:42.759Z,47.84
2023-04-26T23:50:09.528Z,46.98
2023-04-26T23:52:36.145Z,48.31
2023-04-26T23:55:03.563Z,50.07
2023-04-26T23:57:30.173Z,51.02
2023-04-26T23:59:56.813Z,54.98
